• Join FlightAware (Why Join?)
  • Login
  • US Flag 
02:58PM EDT


 

Airport Tracker/Info


-or-


 

Live Flight TrackerFlight Track Log ✈ EJA729 ✈ 19-Jun-2013 ✈ KHPN - KOKC

Flight Track Log - Related Links

Times and Time Zones

All times are in EDT time to prevent confusion due to time zone crossing. See the EJA729 flight status page for this flight to view local times or setup timezone preferences in your user account.

Time Position Orientation Groundspeed Altitude Reporting Facility
EDT Latitude Longitude Course Direction KTS MPH feet Rate Location/Type
03:14PM 41.1000 -73.7500 255° West 195 224 2,400  Level New York TRACON
03:15PM 41.0833 -73.8333 255° West 241 277 5,800 3,900 Climbing New York TRACON
03:16PM 41.0333 -73.9167 232° Southwest 273 314 10,200 3,660 Climbing New York TRACON
03:17PM 41.0000 -74.0167 246° West 320 368 13,200 2,400 Climbing New York TRACON
03:18PM 40.9667 -74.1333 249° West 372 428 15,000 900 Climbing New York TRACON
03:19PM 40.9167 -74.2667 244° Southwest 381 438 15,000  Level New York TRACON
03:20PM 40.8833 -74.3833 249° West 371 427 15,000  Level New York TRACON
03:21PM 40.8314 -74.5831 251° West 368 423 15,000 360 Level New York Center
03:22PM 40.7939 -74.7044 248° West 368 423 16,000 960 Climbing New York Center
03:23PM 40.7564 -74.8311 249° West 368 423 17,000 1,320 Climbing New York Center
03:24PM 40.7231 -74.9467 249° West 378 435 18,600 2,280 Climbing New York Center
03:25PM 40.6761 -75.0944 247° West 390 449 21,600 2,700 Climbing New York Center
03:26PM 40.6194 -75.2194 239° Southwest 390 449 24,100 2,280 Climbing New York Center
03:27PM 40.5625 -75.3467 240° Southwest 400 460 26,200 1,680 Climbing New York Center
03:28PM 40.5072 -75.4769 241° Southwest 410 472 27,600 1,140 Climbing New York Center
03:29PM 40.4928 -75.6286 263° West 401 461 28,500 1,080 Climbing New York Center
03:30PM 40.4822 -75.7808 265° West 413 475 29,800 1,380 Climbing New York Center
03:31PM 40.4456 -75.9064 249° West 413 475 31,300 1,440 Climbing New York Center
03:32PM 40.3917 -76.0442 243° Southwest 413 475 32,800 1,440 Climbing New York Center
03:33PM 40.3381 -76.1706 241° Southwest 402 463 34,300 1,440 Climbing New York Center
03:34PM 40.2908 -76.2894 243° Southwest 384 442 35,800 600 Climbing New York Center
03:36PM 40.2167 -76.4797 243° Southwest 385 443 36,000 60 Climbing Washington Center
03:37PM 40.1678 -76.6014 242° Southwest 385 443 36,000  Level Washington Center
03:38PM 40.1186 -76.7253 243° Southwest 385 443 36,000  Level Washington Center
03:39PM 40.0694 -76.8519 243° Southwest 385 443 36,000  Level Washington Center
03:40PM 40.0139 -76.9839 241° Southwest 377 434 36,000  Level Washington Center
03:41PM 39.9625 -77.1100 242° Southwest 391 450 36,000  Level Washington Center
03:42PM 39.9128 -77.2361 243° Southwest 391 450 36,000  Level Washington Center
03:43PM 39.8611 -77.3619 242° Southwest 391 450 36,000  Level Washington Center
03:44PM 39.8092 -77.4850 241° Southwest 396 456 36,000  Level Washington Center
03:45PM 39.7592 -77.6106 243° Southwest 396 456 36,000  Level Washington Center
03:46PM 39.7092 -77.7358 243° Southwest 396 456 36,000 480 Level Washington Center
03:47PM 39.6589 -77.8611 242° Southwest 396 456 37,000 960 Climbing Washington Center
03:48PM 39.6089 -77.9781 241° Southwest 396 456 38,000 480 Climbing Washington Center
03:49PM 39.5586 -78.0975 241° Southwest 390 449 38,000  Level Washington Center
03:50PM 39.5100 -78.2169 242° Southwest 384 442 38,000  Level Washington Center
03:51PM 39.4572 -78.3386 241° Southwest 384 442 38,000  Level Washington Center
03:52PM 39.4086 -78.4575 242° Southwest 384 442 38,000  Level Washington Center
03:53PM 39.3578 -78.5792 242° Southwest 384 442 38,000  Level Washington Center
03:54PM 39.3069 -78.7003 242° Southwest 384 442 38,000  Level Washington Center
03:55PM 39.2536 -78.8214 240° Southwest 389 448 38,000  Level Washington Center
03:56PM 39.2025 -78.9425 241° Southwest 389 448 38,000  Level Washington Center
03:57PM 39.1508 -79.0658 242° Southwest 389 448 38,000  Level Washington Center
03:58PM 39.0994 -79.1839 241° Southwest 389 448 38,000  Level Washington Center
03:59PM 39.0458 -79.3067 241° Southwest 389 448 38,000  Level Washington Center
04:00PM 38.9961 -79.4244 242° Southwest 389 448 38,000  Level Washington Center
04:01PM 38.9422 -79.5469 241° Southwest 389 448 38,000  Level Washington Center
04:02PM 38.8944 -79.6619 242° Southwest 394 453 38,000  Level Washington Center
04:04PM 38.7856 -79.8964 239° Southwest 394 453 38,000  Level Indianapolis Center
04:05PM 38.7311 -80.0186 240° Southwest 394 453 38,000  Level Indianapolis Center
04:06PM 38.6767 -80.1422 241° Southwest 397 457 38,000  Level Indianapolis Center
04:07PM 38.6422 -80.2775 252° West 402 463 38,000  Level Indianapolis Center
04:08PM 38.6164 -80.4147 256° West 400 460 38,000  Level Indianapolis Center
04:09PM 38.5850 -80.5814 257° West 401 461 38,000  Level Indianapolis Center
04:10PM 38.5586 -80.7206 256° West 401 461 38,000  Level Indianapolis Center
04:11PM 38.5311 -80.8636 256° West 407 468 38,000  Level Indianapolis Center
04:12PM 38.5200 -81.0067 264° West 408 470 38,000  Level Indianapolis Center
04:13PM 38.5058 -81.1525 263° West 412 474 38,000  Level Indianapolis Center
04:14PM 38.4919 -81.2994 263° West 413 475 38,000  Level Indianapolis Center
04:15PM 38.4778 -81.4475 263° West 415 478 38,000  Level Indianapolis Center
04:16PM 38.4633 -81.5978 263° West 420 483 38,000  Level Indianapolis Center
04:17PM 38.4494 -81.7478 263° West 420 483 38,000  Level Indianapolis Center
04:18PM 38.4325 -81.9258 263° West 420 483 38,000  Level Indianapolis Center
04:19PM 38.4175 -82.0742 263° West 420 483 38,000  Level Indianapolis Center
04:20PM 38.4028 -82.2244 263° West 425 489 38,000  Level Indianapolis Center
04:21PM 38.3869 -82.3744 262° West 427 491 38,000  Level Indianapolis Center
04:23PM 38.3703 -82.5347 262° West 429 494 38,000  Level Indianapolis Center
04:24PM 38.3556 -82.6856 263° West 429 494 38,000  Level Indianapolis Center
04:25PM 38.3394 -82.8369 262° West 431 496 38,000  Level Indianapolis Center
04:26PM 38.3194 -83.0133 262° West 431 496 38,000  Level Indianapolis Center
04:27PM 38.3033 -83.1656 262° West 434 499 38,000  Level Indianapolis Center
04:28PM 38.2864 -83.3169 262° West 434 499 38,000  Level Indianapolis Center
04:29PM 38.2689 -83.4700 262° West 436 502 38,000  Level Indianapolis Center
04:30PM 38.2519 -83.6214 262° West 434 499 38,000  Level Indianapolis Center
04:31PM 38.2311 -83.8011 262° West 439 505 38,000  Level Indianapolis Center
04:32PM 38.2131 -83.9547 262° West 440 506 38,000  Level Indianapolis Center
04:33PM 38.1956 -84.1092 262° West 441 507 38,000  Level Indianapolis Center
04:34PM 38.1764 -84.2631 261° West 441 507 38,000  Level Indianapolis Center
04:35PM 38.1586 -84.4161 262° West 440 506 38,000  Level Indianapolis Center
04:36PM 38.1361 -84.5969 261° West 443 510 38,000  Level Indianapolis Center
04:37PM 38.1175 -84.7500 261° West 440 506 38,000  Level Indianapolis Center
04:38PM 38.0986 -84.9025 261° West 438 504 38,000  Level Indianapolis Center
04:39PM 38.0797 -85.0569 261° West 442 509 38,000  Level Indianapolis Center
04:40PM 38.0606 -85.2036 261° West 439 505 38,000  Level Indianapolis Center
04:41PM 38.0406 -85.3567 261° West 437 503 38,000  Level Indianapolis Center
04:42PM 38.0178 -85.5403 261° West 439 505 38,000  Level Indianapolis Center
04:43PM 37.9981 -85.6919 261° West 436 502 38,000  Level Indianapolis Center
04:44PM 37.9764 -85.8453 260° West 438 504 38,000  Level Indianapolis Center
04:45PM 37.9572 -85.9969 261° West 436 502 38,000  Level Indianapolis Center
04:46PM 37.9364 -86.1481 260° West 435 501 38,000  Level Indianapolis Center
04:47PM 37.9147 -86.3019 260° West 439 505 38,000  Level Indianapolis Center
04:48PM 37.8942 -86.4544 260° West 436 502 38,000  Level Indianapolis Center
04:49PM 37.8722 -86.6061 260° West 437 503 38,000  Level Indianapolis Center
04:50PM 37.8461 -86.7906 260° West 439 505 38,000  Level Indianapolis Center
04:51PM 37.8247 -86.9436 260° West 437 503 38,000  Level Indianapolis Center
04:53PM 37.8019 -87.0983 259° West 441 507 38,000  Level Indianapolis Center
04:54PM 37.7814 -87.2456 260° West 442 509 38,000  Level Indianapolis Center
04:55PM 37.7586 -87.3983 259° West 441 507 38,000  Level Indianapolis Center
04:56PM 37.7317 -87.5775 259° West 442 509 38,000  Level Indianapolis Center
04:57PM 37.7094 -87.7306 260° West 441 507 38,000  Level Indianapolis Center
04:58PM 37.6867 -87.8828 259° West 439 505 38,000  Level Indianapolis Center
04:59PM 37.6636 -88.0367 259° West 442 509 38,000  Level Indianapolis Center
05:00PM 37.6400 -88.1900 259° West 442 509 38,000  Level Indianapolis Center
05:01PM 37.6136 -88.3561 259° West 444 511 38,000  Level Indianapolis Center
05:02PM 37.5922 -88.5078 260° West 441 507 38,000  Level Indianapolis Center
05:03PM 37.6133 -88.6567 280° West 427 491 38,000  Level Indianapolis Center
05:04PM 37.6361 -88.8039 281° West 426 490 38,000  Level Indianapolis Center
05:05PM 37.6583 -88.9522 281° West 428 493 38,000  Level Indianapolis Center
05:06PM 37.6828 -89.0994 282° West 428 493 38,000  Level Indianapolis Center
05:07PM 37.6950 -89.2792 275° West 429 494 38,000  Level Indianapolis Center
05:08PM 37.6956 -89.4350 270° West 432 497 38,000  Level Kansas City Center
05:09PM 37.6964 -89.5842 270° West 430 495 38,000  Level Kansas City Center
05:10PM 37.6847 -89.7322 264° West 434 499 38,000  Level Kansas City Center
05:11PM 37.6447 -89.9103 254° West 439 505 38,000  Level Kansas City Center
05:12PM 37.6142 -90.0572 255° West 436 502 38,000  Level Kansas City Center
05:13PM 37.5811 -90.2036 254° West 436 502 38,000  Level Kansas City Center
05:14PM 37.5489 -90.3486 254° West 431 496 38,000  Level Kansas City Center
05:15PM 37.5167 -90.4950 255° West 432 497 38,000  Level Kansas City Center
05:16PM 37.4836 -90.6400 254° West 432 497 38,000  Level Kansas City Center
05:17PM 37.4456 -90.8058 254° West 429 494 38,000  Level Kansas City Center
05:18PM 37.4128 -90.9514 254° West 429 494 38,000  Level Kansas City Center
05:20PM 37.3803 -91.0939 254° West 426 490 38,000  Level Kansas City Center
05:21PM 37.3478 -91.2361 254° West 423 487 38,000  Level Kansas City Center
05:22PM 37.3158 -91.3761 254° West 418 481 38,000  Level Kansas City Center
05:23PM 37.2753 -91.5436 253° West 416 479 38,000  Level Kansas City Center
05:24PM 37.2439 -91.6844 254° West 416 479 38,000  Level Kansas City Center
05:25PM 37.2114 -91.8236 254° West 415 478 38,000  Level Kansas City Center
05:26PM 37.1781 -91.9639 253° West 416 479 38,000  Level Kansas City Center
05:27PM 37.1453 -92.1025 254° West 415 478 38,000  Level Kansas City Center
05:28PM 37.1119 -92.2411 253° West 413 475 38,000  Level Kansas City Center
05:29PM 37.0789 -92.3792 253° West 413 475 38,000  Level Kansas City Center
05:30PM 37.0456 -92.5164 253° West 410 472 38,000  Level Kansas City Center
05:31PM 37.0061 -92.6817 253° West 411 473 38,000  Level Kansas City Center
05:32PM 36.9789 -92.8194 256° West 408 470 38,000  Level Kansas City Center
05:33PM 36.9517 -92.9589 256° West 410 472 38,000  Level Kansas City Center
05:34PM 36.9231 -93.0972 256° West 410 472 38,000  Level Kansas City Center
05:35PM 36.8947 -93.2356 256° West 410 472 38,000  Level Kansas City Center
05:36PM 36.8661 -93.3758 256° West 410 472 38,000  Level Kansas City Center
05:37PM 36.8375 -93.5119 255° West 408 470 38,000  Level Kansas City Center
05:38PM 36.8103 -93.6483 256° West 407 468 38,000  Level Kansas City Center
05:39PM 36.7747 -93.8128 255° West 417 480 38,000  Level Kansas City Center
05:40PM 36.7453 -93.9508 255° West 414 476 38,000  Level Kansas City Center
05:41PM 36.7161 -94.0889 255° West 412 474 38,000  Level Kansas City Center
05:42PM 36.6861 -94.2267 255° West 412 474 38,000  Level Kansas City Center
05:43PM 36.6489 -94.3922 254° West 413 475 38,000  Level Kansas City Center
05:44PM 36.6183 -94.5303 255° West 413 475 38,000  Level Kansas City Center
05:45PM 36.5883 -94.6681 255° West 413 475 38,000  Level Kansas City Center
05:46PM 36.5581 -94.8050 255° West 412 474 38,000  Level Kansas City Center
05:47PM 36.5269 -94.9436 254° West 414 476 38,000  Level Kansas City Center
05:48PM 36.4967 -95.0808 255° West 413 475 38,000 -120 Level Kansas City Center
05:49PM 36.4633 -95.2258 254° West 412 474 37,800 -900 Descending Kansas City Center
05:51PM 36.4317 -95.3633 254° West 412 474 36,200 -1,800 Descending Kansas City Center
05:52PM 36.3989 -95.5025 254° West 416 479 34,200 -1,920 Descending Kansas City Center
05:53PM 36.3617 -95.6758 255° West 429 494 32,300 -1,980 Descending Kansas City Center
05:54PM 36.3253 -95.8339 254° West 445 512 30,200 -1,860 Descending Kansas City Center
05:55PM 36.2914 -95.9833 254° West 449 517 28,500 -1,560 Descending Kansas City Center
05:56PM 36.2558 -96.1358 254° West 457 526 27,000 -1,800 Descending Kansas City Center
05:57PM 36.2186 -96.2911 253° West 466 536 24,900 -2,040 Descending Kansas City Center
05:58PM 36.1833 -96.4422 254° West 461 531 22,800 -2,100 Descending Kansas City Center
05:59PM 36.1494 -96.5850 254° West 439 505 20,600 -2,400 Descending Kansas City Center
06:00PM 36.1086 -96.7514 253° West 425 489 17,900 -2,400 Descending Kansas City Center
06:01PM 36.0806 -96.8722 254° West 410 472 15,700 -2,220 Descending Kansas City Center
06:02PM 36.0503 -96.9964 253° West 388 447 13,400 -2,160 Descending Kansas City Center
06:03PM 36.0203 -97.1156 253° West 372 428 11,300 -1,860 Descending Kansas City Center
06:04PM 35.9672 -97.2192 238° Southwest 314 361 9,600 -1,500 Descending Kansas City Center
06:06PM 35.8608 -97.3214 218° Southwest 278 320 7,400 -1,380 Descending Fort Worth Center
06:07PM 35.8067 -97.3753 219° Southwest 276 318 6,100 -1,200 Descending Fort Worth Center
06:08PM 35.7419 -97.4417 220° Southwest 260 299 5,000 -840 Descending Fort Worth Center
06:09PM 35.6897 -97.5006 222° Southwest 252 290 4,400 -540 Descending Fort Worth Center
06:10PM 35.6458 -97.5542 225° Southwest 233 268 4,000 -240 Descending Fort Worth Center
06:11PM 35.5917 -97.5947 211° Southwest 225 259 4,000 -120 Level Fort Worth Center
06:12PM 35.5353 -97.5922 178° South 203 234 3,800 -660 Descending Fort Worth Center
06:13PM 35.4792 -97.5944 182° South 191 220 2,700 -960 Descending Fort Worth Center
06:14PM 35.4436 -97.5919 177° South 136 157 2,000 -780 Descending Fort Worth Center